sensor_id;sensor_type;location;lat;lon;timestamp;temperature;humidity
57719;DHT22;43561;50.090;18.522;2023-07-13T00:00:52;19.00;99.90
57719;DHT22;43561;50.090;18.522;2023-07-13T00:10:54;18.90;99.90
57719;DHT22;43561;50.090;18.522;2023-07-13T00:20:57;19.20;99.90
57719;DHT22;43561;50.090;18.522;2023-07-13T00:31:00;19.30;99.90
57719;DHT22;43561;50.090;18.522;2023-07-13T00:41:03;19.10;99.90
57719;DHT22;43561;50.090;18.522;2023-07-13T00:51:06;19.10;99.90
57719;DHT22;43561;50.090;18.522;2023-07-13T01:01:08;19.10;99.90
57719;DHT22;43561;50.090;18.522;2023-07-13T01:11:12;19.20;99.90
57719;DHT22;43561;50.090;18.522;2023-07-13T01:21:15;18.70;99.90
57719;DHT22;43561;50.090;18.522;2023-07-13T01:31:17;18.90;99.90
57719;DHT22;43561;50.090;18.522;2023-07-13T01:41:21;19.00;99.90
57719;DHT22;43561;50.090;18.522;2023-07-13T01:51:23;18.80;99.90
57719;DHT22;43561;50.090;18.522;2023-07-13T02:01:24;18.70;99.90
57719;DHT22;43561;50.090;18.522;2023-07-13T02:11:28;18.60;99.90
57719;DHT22;43561;50.090;18.522;2023-07-13T02:21:30;18.60;99.90
57719;DHT22;43561;50.090;18.522;2023-07-13T02:31:32;18.50;99.90
57719;DHT22;43561;50.090;18.522;2023-07-13T02:41:34;18.50;99.90
57719;DHT22;43561;50.090;18.522;2023-07-13T02:51:36;18.40;99.90
57719;DHT22;43561;50.090;18.522;2023-07-13T03:01:39;18.30;99.90
57719;DHT22;43561;50.090;18.522;2023-07-13T03:11:41;18.50;99.90
57719;DHT22;43561;50.090;18.522;2023-07-13T03:21:53;18.70;99.90
57719;DHT22;43561;50.090;18.522;2023-07-13T03:31:56;18.70;99.90
57719;DHT22;43561;50.090;18.522;2023-07-13T03:41:58;18.70;99.90
57719;DHT22;43561;50.090;18.522;2023-07-13T03:52:01;18.60;99.90
57719;DHT22;43561;50.090;18.522;2023-07-13T04:02:03;18.60;99.90
57719;DHT22;43561;50.090;18.522;2023-07-13T04:12:08;18.70;99.90
57719;DHT22;43561;50.090;18.522;2023-07-13T04:22:10;18.80;99.90
57719;DHT22;43561;50.090;18.522;2023-07-13T04:32:12;18.70;99.90
57719;DHT22;43561;50.090;18.522;2023-07-13T04:42:14;18.90;99.90
57719;DHT22;43561;50.090;18.522;2023-07-13T04:52:17;19.20;99.90
57719;DHT22;43561;50.090;18.522;2023-07-13T05:02:20;19.20;99.90
57719;DHT22;43561;50.090;18.522;2023-07-13T05:12:22;19.70;99.90
57719;DHT22;43561;50.090;18.522;2023-07-13T05:22:25;21.10;99.90
57719;DHT22;43561;50.090;18.522;2023-07-13T05:32:27;22.30;99.90
57719;DHT22;43561;50.090;18.522;2023-07-13T05:42:29;22.10;99.90
57719;DHT22;43561;50.090;18.522;2023-07-13T05:52:31;21.40;99.90
57719;DHT22;43561;50.090;18.522;2023-07-13T06:02:33;21.60;99.90
57719;DHT22;43561;50.090;18.522;2023-07-13T06:12:35;21.50;99.90
57719;DHT22;43561;50.090;18.522;2023-07-13T06:22:37;21.50;99.90
57719;DHT22;43561;50.090;18.522;2023-07-13T06:32:39;21.60;99.90
57719;DHT22;43561;50.090;18.522;2023-07-13T06:42:42;22.10;99.90
57719;DHT22;43561;50.090;18.522;2023-07-13T06:52:44;22.10;99.90
57719;DHT22;43561;50.090;18.522;2023-07-13T07:02:46;22.10;99.90
57719;DHT22;43561;50.090;18.522;2023-07-13T07:12:49;22.10;99.90
57719;DHT22;43561;50.090;18.522;2023-07-13T07:22:51;21.50;99.90
57719;DHT22;43561;50.090;18.522;2023-07-13T07:32:53;21.20;99.90
57719;DHT22;43561;50.090;18.522;2023-07-13T07:42:58;21.20;99.90
57719;DHT22;43561;50.090;18.522;2023-07-13T07:53:00;21.20;99.90
57719;DHT22;43561;50.090;18.522;2023-07-13T08:03:02;21.20;99.90
57719;DHT22;43561;50.090;18.522;2023-07-13T08:13:24;21.40;99.90
57719;DHT22;43561;50.090;18.522;2023-07-13T08:23:26;21.80;99.90
57719;DHT22;43561;50.090;18.522;2023-07-13T08:33:28;21.50;99.90
57719;DHT22;43561;50.090;18.522;2023-07-13T08:43:35;21.00;99.90
57719;DHT22;43561;50.090;18.522;2023-07-13T08:53:47;21.10;99.90
57719;DHT22;43561;50.090;18.522;2023-07-13T09:04:05;21.00;99.90
57719;DHT22;43561;50.090;18.522;2023-07-13T09:24:41;20.00;99.90
57719;DHT22;43561;50.090;18.522;2023-07-13T09:34:51;18.60;99.90
57719;DHT22;43561;50.090;18.522;2023-07-13T09:44:59;17.70;99.90
57719;DHT22;43561;50.090;18.522;2023-07-13T09:55:02;17.80;99.90
57719;DHT22;43561;50.090;18.522;2023-07-13T10:05:05;17.50;99.90
57719;DHT22;43561;50.090;18.522;2023-07-13T10:15:15;17.10;99.90
57719;DHT22;43561;50.090;18.522;2023-07-13T10:25:28;17.30;99.90
57719;DHT22;43561;50.090;18.522;2023-07-13T10:35:31;17.40;99.90
57719;DHT22;43561;50.090;18.522;2023-07-13T10:45:35;17.30;99.90
57719;DHT22;43561;50.090;18.522;2023-07-13T10:55:56;17.40;99.90
57719;DHT22;43561;50.090;18.522;2023-07-13T11:26:53;17.90;99.90
57719;DHT22;43561;50.090;18.522;2023-07-13T11:36:59;18.10;99.90
57719;DHT22;43561;50.090;18.522;2023-07-13T11:47:14;18.20;99.90
57719;DHT22;43561;50.090;18.522;2023-07-13T11:57:29;18.10;99.90
57719;DHT22;43561;50.090;18.522;2023-07-13T12:07:33;18.10;99.90
57719;DHT22;43561;50.090;18.522;2023-07-13T12:17:35;18.70;99.90
57719;DHT22;43561;50.090;18.522;2023-07-13T12:27:38;18.80;99.90
57719;DHT22;43561;50.090;18.522;2023-07-13T12:37:43;19.10;99.90
57719;DHT22;43561;50.090;18.522;2023-07-13T12:47:49;19.00;99.90
57719;DHT22;43561;50.090;18.522;2023-07-13T12:57:55;19.10;99.90
57719;DHT22;43561;50.090;18.522;2023-07-13T13:07:57;19.20;99.90
57719;DHT22;43561;50.090;18.522;2023-07-13T13:17:59;19.40;99.90
57719;DHT22;43561;50.090;18.522;2023-07-13T13:28:02;19.60;99.90
57719;DHT22;43561;50.090;18.522;2023-07-13T13:38:13;20.00;99.90
57719;DHT22;43561;50.090;18.522;2023-07-13T13:48:20;19.80;99.90
57719;DHT22;43561;50.090;18.522;2023-07-13T13:58:23;20.30;99.90
57719;DHT22;43561;50.090;18.522;2023-07-13T14:08:25;20.40;99.90
57719;DHT22;43561;50.090;18.522;2023-07-13T14:18:27;20.70;99.90
57719;DHT22;43561;50.090;18.522;2023-07-13T14:28:29;20.80;99.90
57719;DHT22;43561;50.090;18.522;2023-07-13T14:38:31;20.70;99.90
57719;DHT22;43561;50.090;18.522;2023-07-13T14:48:34;20.60;99.90
57719;DHT22;43561;50.090;18.522;2023-07-13T14:58:36;20.70;99.90
57719;DHT22;43561;50.090;18.522;2023-07-13T15:08:38;21.10;99.90
57719;DHT22;43561;50.090;18.522;2023-07-13T15:18:41;21.00;99.90
57719;DHT22;43561;50.090;18.522;2023-07-13T15:28:44;20.90;99.90
57719;DHT22;43561;50.090;18.522;2023-07-13T15:38:48;20.80;99.90
57719;DHT22;43561;50.090;18.522;2023-07-13T15:48:52;21.10;99.90
57719;DHT22;43561;50.090;18.522;2023-07-13T15:58:55;21.10;99.90
57719;DHT22;43561;50.090;18.522;2023-07-13T16:08:58;21.30;99.90
57719;DHT22;43561;50.090;18.522;2023-07-13T16:19:03;21.40;99.90
57719;DHT22;43561;50.090;18.522;2023-07-13T16:29:13;21.60;99.90
57719;DHT22;43561;50.090;18.522;2023-07-13T16:39:16;21.30;99.90
57719;DHT22;43561;50.090;18.522;2023-07-13T16:59:28;21.20;99.90
57719;DHT22;43561;50.090;18.522;2023-07-13T17:09:31;21.30;99.90
57719;DHT22;43561;50.090;18.522;2023-07-13T17:19:33;21.20;99.90
57719;DHT22;43561;50.090;18.522;2023-07-13T17:29:35;21.30;99.90
57719;DHT22;43561;50.090;18.522;2023-07-13T17:39:37;21.10;99.90
57719;DHT22;43561;50.090;18.522;2023-07-13T17:49:39;20.90;99.90
57719;DHT22;43561;50.090;18.522;2023-07-13T17:59:41;20.80;99.90
57719;DHT22;43561;50.090;18.522;2023-07-13T18:09:43;20.80;99.90
57719;DHT22;43561;50.090;18.522;2023-07-13T18:19:46;20.90;99.90
57719;DHT22;43561;50.090;18.522;2023-07-13T18:29:49;21.10;99.90
57719;DHT22;43561;50.090;18.522;2023-07-13T18:39:52;20.50;99.90
57719;DHT22;43561;50.090;18.522;2023-07-13T18:49:54;20.20;99.90
57719;DHT22;43561;50.090;18.522;2023-07-13T18:59:56;19.90;99.90
57719;DHT22;43561;50.090;18.522;2023-07-13T19:09:58;19.60;99.90
57719;DHT22;43561;50.090;18.522;2023-07-13T19:20:00;19.20;99.90
57719;DHT22;43561;50.090;18.522;2023-07-13T19:30:02;19.10;99.90
57719;DHT22;43561;50.090;18.522;2023-07-13T19:40:23;18.70;99.90
57719;DHT22;43561;50.090;18.522;2023-07-13T19:50:28;18.50;99.90
57719;DHT22;43561;50.090;18.522;2023-07-13T20:00:30;18.50;99.90
57719;DHT22;43561;50.090;18.522;2023-07-13T20:10:32;18.30;99.90
57719;DHT22;43561;50.090;18.522;2023-07-13T20:20:36;18.20;99.90
57719;DHT22;43561;50.090;18.522;2023-07-13T20:30:45;18.00;99.90
57719;DHT22;43561;50.090;18.522;2023-07-13T20:40:48;17.80;99.90
57719;DHT22;43561;50.090;18.522;2023-07-13T20:50:55;17.70;99.90
57719;DHT22;43561;50.090;18.522;2023-07-13T21:00:58;17.40;99.90
57719;DHT22;43561;50.090;18.522;2023-07-13T21:11:00;17.20;99.90
57719;DHT22;43561;50.090;18.522;2023-07-13T21:21:02;17.20;99.90
57719;DHT22;43561;50.090;18.522;2023-07-13T21:31:10;17.10;99.90
57719;DHT22;43561;50.090;18.522;2023-07-13T21:41:29;17.00;99.90
57719;DHT22;43561;50.090;18.522;2023-07-13T21:51:32;16.70;99.90
57719;DHT22;43561;50.090;18.522;2023-07-13T22:01:34;16.60;99.90
57719;DHT22;43561;50.090;18.522;2023-07-13T22:11:36;16.70;99.90
57719;DHT22;43561;50.090;18.522;2023-07-13T22:21:39;16.20;99.90
57719;DHT22;43561;50.090;18.522;2023-07-13T22:31:42;16.40;99.90
57719;DHT22;43561;50.090;18.522;2023-07-13T22:41:45;16.30;99.90
57719;DHT22;43561;50.090;18.522;2023-07-13T22:51:47;16.30;99.90
57719;DHT22;43561;50.090;18.522;2023-07-13T23:01:50;16.10;99.90
57719;DHT22;43561;50.090;18.522;2023-07-13T23:11:53;16.10;99.90
57719;DHT22;43561;50.090;18.522;2023-07-13T23:21:56;16.00;99.90
57719;DHT22;43561;50.090;18.522;2023-07-13T23:31:58;15.90;99.90
57719;DHT22;43561;50.090;18.522;2023-07-13T23:42:01;15.80;99.90
57719;DHT22;43561;50.090;18.522;2023-07-13T23:52:08;15.70;99.90
